sensor_id;sensor_type;location;lat;lon;timestamp;P1;durP1;ratioP1;P2;durP2;ratioP2
15082;SDS011;7640;53.116;6.878;2023-12-14T00:01:54;12.80;;;8.40;;
15082;SDS011;7640;53.116;6.878;2023-12-14T00:04:24;15.90;;;8.37;;
15082;SDS011;7640;53.116;6.878;2023-12-14T00:06:53;15.17;;;9.30;;
15082;SDS011;7640;53.116;6.878;2023-12-14T00:09:22;15.97;;;8.83;;
15082;SDS011;7640;53.116;6.878;2023-12-14T00:11:51;17.13;;;8.87;;
15082;SDS011;7640;53.116;6.878;2023-12-14T00:14:20;13.20;;;8.67;;
15082;SDS011;7640;53.116;6.878;2023-12-14T00:16:49;12.47;;;8.47;;
15082;SDS011;7640;53.116;6.878;2023-12-14T00:19:20;11.50;;;8.00;;
15082;SDS011;7640;53.116;6.878;2023-12-14T00:21:54;13.87;;;8.30;;
15082;SDS011;7640;53.116;6.878;2023-12-14T00:24:22;11.87;;;7.40;;
15082;SDS011;7640;53.116;6.878;2023-12-14T00:26:51;12.57;;;8.10;;
15082;SDS011;7640;53.116;6.878;2023-12-14T00:29:21;12.90;;;7.67;;
15082;SDS011;7640;53.116;6.878;2023-12-14T00:31:51;12.67;;;8.00;;
15082;SDS011;7640;53.116;6.878;2023-12-14T00:34:22;12.50;;;8.30;;
15082;SDS011;7640;53.116;6.878;2023-12-14T00:36:52;10.00;;;6.83;;
15082;SDS011;7640;53.116;6.878;2023-12-14T00:39:21;9.67;;;6.87;;
15082;SDS011;7640;53.116;6.878;2023-12-14T00:41:50;10.97;;;7.10;;
15082;SDS011;7640;53.116;6.878;2023-12-14T00:44:19;10.07;;;7.13;;
15082;SDS011;7640;53.116;6.878;2023-12-14T00:46:48;11.93;;;7.63;;
15082;SDS011;7640;53.116;6.878;2023-12-14T00:49:16;9.03;;;6.80;;
15082;SDS011;7640;53.116;6.878;2023-12-14T00:51:45;11.10;;;7.03;;
15082;SDS011;7640;53.116;6.878;2023-12-14T00:54:16;10.27;;;6.63;;
15082;SDS011;7640;53.116;6.878;2023-12-14T00:56:45;10.87;;;7.50;;
15082;SDS011;7640;53.116;6.878;2023-12-14T00:59:13;13.67;;;6.73;;
15082;SDS011;7640;53.116;6.878;2023-12-14T01:01:42;10.77;;;7.47;;
15082;SDS011;7640;53.116;6.878;2023-12-14T01:04:11;9.33;;;6.80;;
15082;SDS011;7640;53.116;6.878;2023-12-14T01:06:40;11.40;;;6.80;;
15082;SDS011;7640;53.116;6.878;2023-12-14T01:09:08;10.43;;;6.50;;
15082;SDS011;7640;53.116;6.878;2023-12-14T01:11:39;12.77;;;7.17;;
15082;SDS011;7640;53.116;6.878;2023-12-14T01:14:08;11.43;;;6.70;;
15082;SDS011;7640;53.116;6.878;2023-12-14T01:16:37;10.40;;;7.13;;
15082;SDS011;7640;53.116;6.878;2023-12-14T01:19:06;10.93;;;7.27;;
15082;SDS011;7640;53.116;6.878;2023-12-14T01:21:35;10.00;;;6.40;;
15082;SDS011;7640;53.116;6.878;2023-12-14T01:24:04;12.80;;;7.27;;
15082;SDS011;7640;53.116;6.878;2023-12-14T01:26:33;11.40;;;7.13;;
15082;SDS011;7640;53.116;6.878;2023-12-14T01:29:03;12.50;;;7.23;;
15082;SDS011;7640;53.116;6.878;2023-12-14T01:31:32;12.97;;;7.33;;
15082;SDS011;7640;53.116;6.878;2023-12-14T01:34:01;11.00;;;7.47;;
15082;SDS011;7640;53.116;6.878;2023-12-14T01:36:30;13.03;;;7.77;;
15082;SDS011;7640;53.116;6.878;2023-12-14T01:38:59;11.13;;;6.67;;
15082;SDS011;7640;53.116;6.878;2023-12-14T01:41:28;11.10;;;6.70;;
15082;SDS011;7640;53.116;6.878;2023-12-14T01:43:56;11.53;;;7.20;;
15082;SDS011;7640;53.116;6.878;2023-12-14T01:46:27;12.73;;;7.07;;
15082;SDS011;7640;53.116;6.878;2023-12-14T01:48:56;13.10;;;7.17;;
15082;SDS011;7640;53.116;6.878;2023-12-14T01:51:25;12.50;;;7.33;;
15082;SDS011;7640;53.116;6.878;2023-12-14T01:53:54;13.23;;;7.50;;
15082;SDS011;7640;53.116;6.878;2023-12-14T01:56:23;14.20;;;7.87;;
15082;SDS011;7640;53.116;6.878;2023-12-14T01:58:52;18.70;;;9.53;;
15082;SDS011;7640;53.116;6.878;2023-12-14T02:01:22;16.07;;;10.33;;
15082;SDS011;7640;53.116;6.878;2023-12-14T02:04:01;18.90;;;10.60;;
15082;SDS011;7640;53.116;6.878;2023-12-14T02:06:33;17.73;;;10.33;;
15082;SDS011;7640;53.116;6.878;2023-12-14T02:09:02;22.27;;;10.40;;
15082;SDS011;7640;53.116;6.878;2023-12-14T02:11:31;19.23;;;9.43;;
15082;SDS011;7640;53.116;6.878;2023-12-14T02:14:03;21.30;;;11.77;;
15082;SDS011;7640;53.116;6.878;2023-12-14T02:16:34;18.77;;;10.97;;
15082;SDS011;7640;53.116;6.878;2023-12-14T02:19:05;22.80;;;11.30;;
15082;SDS011;7640;53.116;6.878;2023-12-14T02:21:34;19.60;;;9.67;;
15082;SDS011;7640;53.116;6.878;2023-12-14T02:24:05;18.17;;;9.87;;
15082;SDS011;7640;53.116;6.878;2023-12-14T02:26:34;20.00;;;10.30;;
15082;SDS011;7640;53.116;6.878;2023-12-14T02:29:03;18.57;;;10.03;;
15082;SDS011;7640;53.116;6.878;2023-12-14T02:31:31;17.80;;;10.43;;
15082;SDS011;7640;53.116;6.878;2023-12-14T02:34:00;18.87;;;10.53;;
15082;SDS011;7640;53.116;6.878;2023-12-14T02:36:29;18.47;;;10.00;;
15082;SDS011;7640;53.116;6.878;2023-12-14T02:38:57;18.60;;;9.17;;
15082;SDS011;7640;53.116;6.878;2023-12-14T02:41:28;19.37;;;10.40;;
15082;SDS011;7640;53.116;6.878;2023-12-14T02:43:57;16.80;;;9.53;;
15082;SDS011;7640;53.116;6.878;2023-12-14T02:46:26;17.60;;;8.90;;
15082;SDS011;7640;53.116;6.878;2023-12-14T02:48:55;17.60;;;9.07;;
15082;SDS011;7640;53.116;6.878;2023-12-14T02:51:24;16.83;;;9.10;;
15082;SDS011;7640;53.116;6.878;2023-12-14T02:53:53;17.47;;;9.20;;
15082;SDS011;7640;53.116;6.878;2023-12-14T02:56:23;16.13;;;8.90;;
15082;SDS011;7640;53.116;6.878;2023-12-14T02:58:54;19.00;;;10.27;;
15082;SDS011;7640;53.116;6.878;2023-12-14T03:01:23;18.00;;;9.33;;
15082;SDS011;7640;53.116;6.878;2023-12-14T03:03:52;19.50;;;10.20;;
15082;SDS011;7640;53.116;6.878;2023-12-14T03:06:21;20.67;;;10.27;;
15082;SDS011;7640;53.116;6.878;2023-12-14T03:08:49;18.43;;;10.70;;
15082;SDS011;7640;53.116;6.878;2023-12-14T03:11:21;18.57;;;9.83;;
15082;SDS011;7640;53.116;6.878;2023-12-14T03:13:51;18.40;;;9.87;;
15082;SDS011;7640;53.116;6.878;2023-12-14T03:16:22;19.57;;;9.93;;
15082;SDS011;7640;53.116;6.878;2023-12-14T03:18:51;21.00;;;10.43;;
15082;SDS011;7640;53.116;6.878;2023-12-14T03:21:20;17.43;;;9.70;;
15082;SDS011;7640;53.116;6.878;2023-12-14T03:23:49;19.90;;;10.80;;
15082;SDS011;7640;53.116;6.878;2023-12-14T03:26:18;18.83;;;9.63;;
15082;SDS011;7640;53.116;6.878;2023-12-14T03:28:47;20.30;;;10.20;;
15082;SDS011;7640;53.116;6.878;2023-12-14T03:31:19;17.27;;;9.57;;
15082;SDS011;7640;53.116;6.878;2023-12-14T03:33:48;19.13;;;10.77;;
15082;SDS011;7640;53.116;6.878;2023-12-14T03:36:17;20.83;;;10.60;;
15082;SDS011;7640;53.116;6.878;2023-12-14T03:38:46;19.53;;;10.13;;
15082;SDS011;7640;53.116;6.878;2023-12-14T03:41:18;19.40;;;9.40;;
15082;SDS011;7640;53.116;6.878;2023-12-14T03:43:47;19.50;;;10.23;;
15082;SDS011;7640;53.116;6.878;2023-12-14T03:46:16;21.20;;;9.87;;
15082;SDS011;7640;53.116;6.878;2023-12-14T03:48:47;17.97;;;9.93;;
15082;SDS011;7640;53.116;6.878;2023-12-14T03:51:20;19.93;;;10.20;;
15082;SDS011;7640;53.116;6.878;2023-12-14T03:53:49;16.07;;;9.63;;
15082;SDS011;7640;53.116;6.878;2023-12-14T03:56:19;19.67;;;10.07;;
15082;SDS011;7640;53.116;6.878;2023-12-14T03:58:48;18.90;;;9.27;;
15082;SDS011;7640;53.116;6.878;2023-12-14T04:01:17;16.57;;;9.17;;
15082;SDS011;7640;53.116;6.878;2023-12-14T04:03:49;18.00;;;9.13;;
15082;SDS011;7640;53.116;6.878;2023-12-14T04:06:18;19.27;;;9.63;;
15082;SDS011;7640;53.116;6.878;2023-12-14T04:08:47;19.93;;;10.00;;
15082;SDS011;7640;53.116;6.878;2023-12-14T04:11:16;22.77;;;9.90;;
15082;SDS011;7640;53.116;6.878;2023-12-14T04:13:46;21.00;;;9.77;;
15082;SDS011;7640;53.116;6.878;2023-12-14T04:16:19;18.73;;;9.60;;
15082;SDS011;7640;53.116;6.878;2023-12-14T04:18:53;22.13;;;10.60;;
15082;SDS011;7640;53.116;6.878;2023-12-14T04:21:22;22.93;;;11.37;;
15082;SDS011;7640;53.116;6.878;2023-12-14T04:23:51;18.23;;;9.97;;
15082;SDS011;7640;53.116;6.878;2023-12-14T04:26:20;23.33;;;10.40;;
15082;SDS011;7640;53.116;6.878;2023-12-14T04:28:49;18.70;;;10.03;;
15082;SDS011;7640;53.116;6.878;2023-12-14T04:31:18;21.47;;;10.60;;
15082;SDS011;7640;53.116;6.878;2023-12-14T04:33:47;21.47;;;10.47;;
15082;SDS011;7640;53.116;6.878;2023-12-14T04:36:18;19.40;;;10.50;;
15082;SDS011;7640;53.116;6.878;2023-12-14T04:38:47;21.30;;;10.23;;
15082;SDS011;7640;53.116;6.878;2023-12-14T04:41:16;20.23;;;10.40;;
15082;SDS011;7640;53.116;6.878;2023-12-14T04:43:46;23.83;;;11.77;;
15082;SDS011;7640;53.116;6.878;2023-12-14T04:46:15;21.20;;;10.43;;
15082;SDS011;7640;53.116;6.878;2023-12-14T04:48:45;21.43;;;10.80;;
15082;SDS011;7640;53.116;6.878;2023-12-14T04:51:13;25.93;;;11.83;;
15082;SDS011;7640;53.116;6.878;2023-12-14T04:53:44;25.77;;;11.43;;
15082;SDS011;7640;53.116;6.878;2023-12-14T04:56:13;21.63;;;11.27;;
15082;SDS011;7640;53.116;6.878;2023-12-14T04:58:43;22.27;;;11.60;;
15082;SDS011;7640;53.116;6.878;2023-12-14T05:01:13;21.50;;;11.43;;
15082;SDS011;7640;53.116;6.878;2023-12-14T05:03:42;21.83;;;10.57;;
15082;SDS011;7640;53.116;6.878;2023-12-14T05:06:12;22.77;;;11.63;;
15082;SDS011;7640;53.116;6.878;2023-12-14T05:08:47;27.83;;;11.83;;
15082;SDS011;7640;53.116;6.878;2023-12-14T05:11:16;21.20;;;10.80;;
15082;SDS011;7640;53.116;6.878;2023-12-14T05:13:45;23.70;;;11.87;;
15082;SDS011;7640;53.116;6.878;2023-12-14T05:16:14;22.67;;;11.63;;
15082;SDS011;7640;53.116;6.878;2023-12-14T05:18:45;23.93;;;11.50;;
15082;SDS011;7640;53.116;6.878;2023-12-14T05:21:16;22.40;;;12.03;;
15082;SDS011;7640;53.116;6.878;2023-12-14T05:23:47;19.07;;;11.60;;
15082;SDS011;7640;53.116;6.878;2023-12-14T05:26:16;25.33;;;11.43;;
15082;SDS011;7640;53.116;6.878;2023-12-14T05:28:46;22.70;;;11.70;;
15082;SDS011;7640;53.116;6.878;2023-12-14T05:31:15;25.83;;;11.80;;
15082;SDS011;7640;53.116;6.878;2023-12-14T05:33:44;22.93;;;11.87;;
15082;SDS011;7640;53.116;6.878;2023-12-14T05:36:13;28.10;;;12.07;;
15082;SDS011;7640;53.116;6.878;2023-12-14T05:38:45;27.93;;;12.27;;
15082;SDS011;7640;53.116;6.878;2023-12-14T05:41:15;24.23;;;12.03;;
15082;SDS011;7640;53.116;6.878;2023-12-14T05:43:44;24.37;;;12.00;;
15082;SDS011;7640;53.116;6.878;2023-12-14T05:46:21;25.73;;;11.80;;
15082;SDS011;7640;53.116;6.878;2023-12-14T05:48:50;26.40;;;12.23;;
15082;SDS011;7640;53.116;6.878;2023-12-14T05:51:28;23.57;;;11.53;;
15082;SDS011;7640;53.116;6.878;2023-12-14T05:53:59;28.83;;;12.13;;
15082;SDS011;7640;53.116;6.878;2023-12-14T05:56:29;27.63;;;12.03;;
15082;SDS011;7640;53.116;6.878;2023-12-14T05:58:57;27.27;;;12.70;;
15082;SDS011;7640;53.116;6.878;2023-12-14T06:01:27;22.83;;;12.23;;
15082;SDS011;7640;53.116;6.878;2023-12-14T06:03:56;27.93;;;11.97;;
15082;SDS011;7640;53.116;6.878;2023-12-14T06:06:25;23.50;;;12.33;;
15082;SDS011;7640;53.116;6.878;2023-12-14T06:08:53;23.93;;;12.70;;
15082;SDS011;7640;53.116;6.878;2023-12-14T06:11:23;23.37;;;12.00;;
15082;SDS011;7640;53.116;6.878;2023-12-14T06:13:52;23.87;;;12.80;;
15082;SDS011;7640;53.116;6.878;2023-12-14T06:16:21;27.97;;;12.50;;
15082;SDS011;7640;53.116;6.878;2023-12-14T06:18:50;24.27;;;12.13;;
15082;SDS011;7640;53.116;6.878;2023-12-14T06:21:19;27.60;;;13.73;;
15082;SDS011;7640;53.116;6.878;2023-12-14T06:24:16;24.77;;;12.87;;
15082;SDS011;7640;53.116;6.878;2023-12-14T06:26:49;24.70;;;12.77;;
15082;SDS011;7640;53.116;6.878;2023-12-14T06:29:17;24.60;;;12.50;;
15082;SDS011;7640;53.116;6.878;2023-12-14T06:31:46;28.23;;;13.60;;
15082;SDS011;7640;53.116;6.878;2023-12-14T06:34:16;28.10;;;14.60;;
15082;SDS011;7640;53.116;6.878;2023-12-14T06:36:44;28.03;;;14.20;;
15082;SDS011;7640;53.116;6.878;2023-12-14T06:39:14;26.27;;;13.07;;
15082;SDS011;7640;53.116;6.878;2023-12-14T06:41:46;27.10;;;13.60;;
15082;SDS011;7640;53.116;6.878;2023-12-14T06:44:16;24.10;;;12.90;;
15082;SDS011;7640;53.116;6.878;2023-12-14T06:46:44;26.40;;;12.73;;
15082;SDS011;7640;53.116;6.878;2023-12-14T06:49:13;27.47;;;13.93;;
15082;SDS011;7640;53.116;6.878;2023-12-14T06:51:43;28.33;;;12.73;;
15082;SDS011;7640;53.116;6.878;2023-12-14T06:54:11;25.57;;;12.57;;
15082;SDS011;7640;53.116;6.878;2023-12-14T06:56:40;28.60;;;13.60;;
15082;SDS011;7640;53.116;6.878;2023-12-14T06:59:08;27.80;;;12.93;;
15082;SDS011;7640;53.116;6.878;2023-12-14T07:01:39;27.03;;;13.40;;
15082;SDS011;7640;53.116;6.878;2023-12-14T07:04:08;29.47;;;12.30;;
15082;SDS011;7640;53.116;6.878;2023-12-14T07:06:41;29.50;;;13.33;;
15082;SDS011;7640;53.116;6.878;2023-12-14T07:09:09;28.47;;;12.63;;
15082;SDS011;7640;53.116;6.878;2023-12-14T07:11:38;29.13;;;13.13;;
15082;SDS011;7640;53.116;6.878;2023-12-14T07:14:07;29.00;;;13.07;;
15082;SDS011;7640;53.116;6.878;2023-12-14T07:16:36;31.03;;;12.83;;
15082;SDS011;7640;53.116;6.878;2023-12-14T07:19:06;27.17;;;13.13;;
15082;SDS011;7640;53.116;6.878;2023-12-14T07:21:37;30.00;;;13.60;;
15082;SDS011;7640;53.116;6.878;2023-12-14T07:24:06;27.70;;;13.17;;
15082;SDS011;7640;53.116;6.878;2023-12-14T07:26:35;31.33;;;13.77;;
15082;SDS011;7640;53.116;6.878;2023-12-14T07:29:03;30.53;;;13.87;;
15082;SDS011;7640;53.116;6.878;2023-12-14T07:31:32;28.40;;;13.87;;
15082;SDS011;7640;53.116;6.878;2023-12-14T07:34:01;30.43;;;14.73;;
15082;SDS011;7640;53.116;6.878;2023-12-14T07:36:31;33.13;;;14.13;;
15082;SDS011;7640;53.116;6.878;2023-12-14T07:39:00;34.07;;;14.40;;
15082;SDS011;7640;53.116;6.878;2023-12-14T07:41:30;29.97;;;14.47;;
15082;SDS011;7640;53.116;6.878;2023-12-14T07:43:59;29.27;;;14.27;;
15082;SDS011;7640;53.116;6.878;2023-12-14T07:46:31;29.13;;;13.63;;
15082;SDS011;7640;53.116;6.878;2023-12-14T07:49:01;31.50;;;14.90;;
15082;SDS011;7640;53.116;6.878;2023-12-14T07:51:31;31.57;;;14.60;;
15082;SDS011;7640;53.116;6.878;2023-12-14T07:54:01;37.57;;;15.33;;
15082;SDS011;7640;53.116;6.878;2023-12-14T07:56:30;30.50;;;14.87;;
15082;SDS011;7640;53.116;6.878;2023-12-14T07:58:59;34.37;;;15.40;;
15082;SDS011;7640;53.116;6.878;2023-12-14T08:01:33;35.10;;;15.10;;
15082;SDS011;7640;53.116;6.878;2023-12-14T08:04:05;34.47;;;14.73;;
15082;SDS011;7640;53.116;6.878;2023-12-14T08:06:35;31.43;;;15.10;;
15082;SDS011;7640;53.116;6.878;2023-12-14T08:09:05;35.13;;;15.17;;
15082;SDS011;7640;53.116;6.878;2023-12-14T08:11:35;30.10;;;15.17;;
15082;SDS011;7640;53.116;6.878;2023-12-14T08:14:03;37.33;;;15.10;;
15082;SDS011;7640;53.116;6.878;2023-12-14T08:16:32;36.37;;;15.40;;
15082;SDS011;7640;53.116;6.878;2023-12-14T08:19:01;35.80;;;15.07;;
15082;SDS011;7640;53.116;6.878;2023-12-14T08:21:31;34.23;;;15.43;;
15082;SDS011;7640;53.116;6.878;2023-12-14T08:24:01;32.23;;;15.93;;
15082;SDS011;7640;53.116;6.878;2023-12-14T08:26:30;33.23;;;15.40;;
15082;SDS011;7640;53.116;6.878;2023-12-14T08:28:59;31.37;;;15.63;;
15082;SDS011;7640;53.116;6.878;2023-12-14T08:31:28;33.57;;;15.37;;
15082;SDS011;7640;53.116;6.878;2023-12-14T08:33:56;34.60;;;15.57;;
15082;SDS011;7640;53.116;6.878;2023-12-14T08:36:26;33.97;;;15.93;;
15082;SDS011;7640;53.116;6.878;2023-12-14T08:38:54;34.83;;;15.50;;
15082;SDS011;7640;53.116;6.878;2023-12-14T08:41:24;36.23;;;16.40;;
15082;SDS011;7640;53.116;6.878;2023-12-14T08:43:55;34.87;;;15.13;;
15082;SDS011;7640;53.116;6.878;2023-12-14T08:46:24;32.60;;;15.43;;
15082;SDS011;7640;53.116;6.878;2023-12-14T08:48:53;35.23;;;16.13;;
15082;SDS011;7640;53.116;6.878;2023-12-14T08:51:22;36.53;;;15.77;;
15082;SDS011;7640;53.116;6.878;2023-12-14T08:53:53;35.27;;;15.47;;
15082;SDS011;7640;53.116;6.878;2023-12-14T08:56:24;33.57;;;15.43;;
15082;SDS011;7640;53.116;6.878;2023-12-14T08:58:54;38.10;;;16.00;;
15082;SDS011;7640;53.116;6.878;2023-12-14T09:01:23;32.70;;;15.47;;
15082;SDS011;7640;53.116;6.878;2023-12-14T09:03:53;34.60;;;15.73;;
15082;SDS011;7640;53.116;6.878;2023-12-14T09:06:22;35.60;;;15.87;;
15082;SDS011;7640;53.116;6.878;2023-12-14T09:08:50;31.90;;;14.20;;
15082;SDS011;7640;53.116;6.878;2023-12-14T09:11:19;32.53;;;14.93;;
15082;SDS011;7640;53.116;6.878;2023-12-14T09:13:49;35.47;;;15.40;;
15082;SDS011;7640;53.116;6.878;2023-12-14T09:16:18;33.97;;;14.87;;
15082;SDS011;7640;53.116;6.878;2023-12-14T09:18:47;32.97;;;15.30;;
15082;SDS011;7640;53.116;6.878;2023-12-14T09:21:16;32.67;;;14.53;;
15082;SDS011;7640;53.116;6.878;2023-12-14T09:23:48;33.63;;;15.20;;
15082;SDS011;7640;53.116;6.878;2023-12-14T09:26:17;32.03;;;15.07;;
15082;SDS011;7640;53.116;6.878;2023-12-14T09:28:47;33.57;;;15.60;;
15082;SDS011;7640;53.116;6.878;2023-12-14T09:31:18;34.37;;;15.73;;
15082;SDS011;7640;53.116;6.878;2023-12-14T09:33:46;33.60;;;15.27;;
15082;SDS011;7640;53.116;6.878;2023-12-14T09:36:16;34.67;;;15.43;;
15082;SDS011;7640;53.116;6.878;2023-12-14T09:38:45;32.53;;;15.33;;
15082;SDS011;7640;53.116;6.878;2023-12-14T09:41:14;31.40;;;14.40;;
15082;SDS011;7640;53.116;6.878;2023-12-14T09:43:43;32.83;;;14.63;;
15082;SDS011;7640;53.116;6.878;2023-12-14T09:46:14;33.00;;;15.57;;
15082;SDS011;7640;53.116;6.878;2023-12-14T09:48:46;33.93;;;15.57;;
15082;SDS011;7640;53.116;6.878;2023-12-14T09:51:16;30.67;;;14.63;;
15082;SDS011;7640;53.116;6.878;2023-12-14T09:53:50;34.03;;;14.80;;
15082;SDS011;7640;53.116;6.878;2023-12-14T09:56:24;29.33;;;15.03;;
15082;SDS011;7640;53.116;6.878;2023-12-14T09:58:53;31.07;;;15.10;;
15082;SDS011;7640;53.116;6.878;2023-12-14T10:01:25;29.37;;;14.77;;
15082;SDS011;7640;53.116;6.878;2023-12-14T10:04:07;30.33;;;15.23;;
15082;SDS011;7640;53.116;6.878;2023-12-14T10:06:37;35.40;;;16.03;;
15082;SDS011;7640;53.116;6.878;2023-12-14T10:09:07;30.93;;;14.33;;
15082;SDS011;7640;53.116;6.878;2023-12-14T10:11:40;28.10;;;14.87;;
15082;SDS011;7640;53.116;6.878;2023-12-14T10:14:18;26.43;;;14.73;;
15082;SDS011;7640;53.116;6.878;2023-12-14T10:16:50;26.17;;;13.77;;
15082;SDS011;7640;53.116;6.878;2023-12-14T10:19:29;30.43;;;14.27;;
15082;SDS011;7640;53.116;6.878;2023-12-14T10:21:57;29.93;;;15.03;;
15082;SDS011;7640;53.116;6.878;2023-12-14T10:24:28;30.60;;;14.93;;
15082;SDS011;7640;53.116;6.878;2023-12-14T10:27:02;36.17;;;15.77;;
15082;SDS011;7640;53.116;6.878;2023-12-14T10:29:35;32.00;;;15.17;;
15082;SDS011;7640;53.116;6.878;2023-12-14T10:32:07;30.03;;;15.20;;
15082;SDS011;7640;53.116;6.878;2023-12-14T10:34:38;37.07;;;15.83;;
15082;SDS011;7640;53.116;6.878;2023-12-14T10:37:07;28.83;;;15.07;;
15082;SDS011;7640;53.116;6.878;2023-12-14T10:39:37;33.70;;;15.00;;
15082;SDS011;7640;53.116;6.878;2023-12-14T10:42:10;30.10;;;14.37;;
15082;SDS011;7640;53.116;6.878;2023-12-14T10:44:46;33.83;;;14.23;;
15082;SDS011;7640;53.116;6.878;2023-12-14T10:47:42;33.70;;;16.50;;
15082;SDS011;7640;53.116;6.878;2023-12-14T10:50:14;34.37;;;15.30;;
15082;SDS011;7640;53.116;6.878;2023-12-14T10:52:43;27.70;;;14.30;;
15082;SDS011;7640;53.116;6.878;2023-12-14T10:55:15;28.93;;;13.97;;
15082;SDS011;7640;53.116;6.878;2023-12-14T10:57:51;26.67;;;13.97;;
15082;SDS011;7640;53.116;6.878;2023-12-14T11:00:20;29.67;;;14.60;;
15082;SDS011;7640;53.116;6.878;2023-12-14T11:02:51;29.73;;;14.37;;
15082;SDS011;7640;53.116;6.878;2023-12-14T11:05:21;31.53;;;14.87;;
15082;SDS011;7640;53.116;6.878;2023-12-14T11:07:59;30.50;;;14.03;;
15082;SDS011;7640;53.116;6.878;2023-12-14T11:10:36;30.47;;;14.63;;
15082;SDS011;7640;53.116;6.878;2023-12-14T11:13:06;27.03;;;13.63;;
15082;SDS011;7640;53.116;6.878;2023-12-14T11:15:39;23.77;;;12.37;;
15082;SDS011;7640;53.116;6.878;2023-12-14T11:18:24;34.57;;;18.30;;
15082;SDS011;7640;53.116;6.878;2023-12-14T11:20:55;27.30;;;13.23;;
15082;SDS011;7640;53.116;6.878;2023-12-14T11:23:29;27.20;;;13.20;;
15082;SDS011;7640;53.116;6.878;2023-12-14T11:26:00;26.50;;;13.30;;
15082;SDS011;7640;53.116;6.878;2023-12-14T11:28:32;27.57;;;14.07;;
15082;SDS011;7640;53.116;6.878;2023-12-14T11:31:03;27.03;;;14.37;;
15082;SDS011;7640;53.116;6.878;2023-12-14T11:33:35;26.37;;;14.03;;
15082;SDS011;7640;53.116;6.878;2023-12-14T11:36:10;25.83;;;13.30;;
15082;SDS011;7640;53.116;6.878;2023-12-14T11:38:41;28.07;;;13.60;;
15082;SDS011;7640;53.116;6.878;2023-12-14T11:41:10;29.20;;;14.77;;
15082;SDS011;7640;53.116;6.878;2023-12-14T11:43:40;23.93;;;13.50;;
15082;SDS011;7640;53.116;6.878;2023-12-14T11:46:10;28.30;;;14.43;;
15082;SDS011;7640;53.116;6.878;2023-12-14T11:48:43;25.83;;;14.13;;
15082;SDS011;7640;53.116;6.878;2023-12-14T11:51:13;27.10;;;13.83;;
15082;SDS011;7640;53.116;6.878;2023-12-14T11:53:43;26.73;;;14.07;;
15082;SDS011;7640;53.116;6.878;2023-12-14T11:56:15;29.17;;;14.27;;
15082;SDS011;7640;53.116;6.878;2023-12-14T11:58:46;27.37;;;15.50;;
15082;SDS011;7640;53.116;6.878;2023-12-14T12:01:18;24.07;;;12.97;;
15082;SDS011;7640;53.116;6.878;2023-12-14T12:03:51;22.03;;;13.10;;
15082;SDS011;7640;53.116;6.878;2023-12-14T12:06:23;26.57;;;14.67;;
15082;SDS011;7640;53.116;6.878;2023-12-14T12:08:54;26.90;;;13.63;;
15082;SDS011;7640;53.116;6.878;2023-12-14T12:11:24;25.97;;;15.17;;
15082;SDS011;7640;53.116;6.878;2023-12-14T12:13:55;27.30;;;14.20;;
15082;SDS011;7640;53.116;6.878;2023-12-14T12:16:26;29.10;;;15.40;;
15082;SDS011;7640;53.116;6.878;2023-12-14T12:18:57;33.70;;;15.60;;
15082;SDS011;7640;53.116;6.878;2023-12-14T12:21:28;29.53;;;14.97;;
15082;SDS011;7640;53.116;6.878;2023-12-14T12:23:57;27.63;;;14.60;;
15082;SDS011;7640;53.116;6.878;2023-12-14T12:26:27;28.27;;;15.20;;
15082;SDS011;7640;53.116;6.878;2023-12-14T12:28:55;26.27;;;13.97;;
15082;SDS011;7640;53.116;6.878;2023-12-14T12:31:25;27.33;;;15.33;;
15082;SDS011;7640;53.116;6.878;2023-12-14T12:33:53;29.87;;;15.13;;
15082;SDS011;7640;53.116;6.878;2023-12-14T12:36:24;28.97;;;14.70;;
15082;SDS011;7640;53.116;6.878;2023-12-14T12:38:53;31.83;;;15.20;;
15082;SDS011;7640;53.116;6.878;2023-12-14T12:41:21;29.10;;;14.43;;
15082;SDS011;7640;53.116;6.878;2023-12-14T12:43:50;29.80;;;15.20;;
15082;SDS011;7640;53.116;6.878;2023-12-14T12:46:25;26.53;;;14.43;;
15082;SDS011;7640;53.116;6.878;2023-12-14T12:48:53;31.80;;;16.00;;
15082;SDS011;7640;53.116;6.878;2023-12-14T12:51:24;32.67;;;16.03;;
15082;SDS011;7640;53.116;6.878;2023-12-14T12:53:54;27.57;;;14.70;;
15082;SDS011;7640;53.116;6.878;2023-12-14T12:56:38;31.27;;;15.17;;
15082;SDS011;7640;53.116;6.878;2023-12-14T12:59:06;29.37;;;15.70;;
15082;SDS011;7640;53.116;6.878;2023-12-14T13:01:37;29.27;;;14.60;;
15082;SDS011;7640;53.116;6.878;2023-12-14T13:04:17;34.00;;;14.73;;
15082;SDS011;7640;53.116;6.878;2023-12-14T13:06:48;29.17;;;14.80;;
15082;SDS011;7640;53.116;6.878;2023-12-14T13:09:18;27.83;;;13.63;;
15082;SDS011;7640;53.116;6.878;2023-12-14T13:11:47;23.97;;;14.63;;
15082;SDS011;7640;53.116;6.878;2023-12-14T13:14:16;29.20;;;14.97;;
15082;SDS011;7640;53.116;6.878;2023-12-14T13:16:45;27.00;;;13.97;;
15082;SDS011;7640;53.116;6.878;2023-12-14T13:19:16;25.20;;;13.20;;
15082;SDS011;7640;53.116;6.878;2023-12-14T13:21:44;24.77;;;13.47;;
15082;SDS011;7640;53.116;6.878;2023-12-14T13:24:15;26.93;;;13.90;;
15082;SDS011;7640;53.116;6.878;2023-12-14T13:26:44;28.70;;;13.10;;
15082;SDS011;7640;53.116;6.878;2023-12-14T13:29:13;25.27;;;13.43;;
15082;SDS011;7640;53.116;6.878;2023-12-14T13:31:41;25.87;;;13.70;;
15082;SDS011;7640;53.116;6.878;2023-12-14T13:34:10;26.10;;;13.00;;
15082;SDS011;7640;53.116;6.878;2023-12-14T13:36:39;25.17;;;13.03;;
15082;SDS011;7640;53.116;6.878;2023-12-14T13:39:10;22.73;;;12.70;;
15082;SDS011;7640;53.116;6.878;2023-12-14T13:41:41;24.70;;;13.07;;
15082;SDS011;7640;53.116;6.878;2023-12-14T13:44:16;24.00;;;12.50;;
15082;SDS011;7640;53.116;6.878;2023-12-14T13:46:45;29.23;;;12.80;;
15082;SDS011;7640;53.116;6.878;2023-12-14T13:49:13;25.50;;;13.07;;
15082;SDS011;7640;53.116;6.878;2023-12-14T13:51:42;25.47;;;12.77;;
15082;SDS011;7640;53.116;6.878;2023-12-14T13:54:12;24.27;;;13.47;;
15082;SDS011;7640;53.116;6.878;2023-12-14T13:56:41;24.97;;;12.57;;
15082;SDS011;7640;53.116;6.878;2023-12-14T13:59:10;25.73;;;13.17;;
15082;SDS011;7640;53.116;6.878;2023-12-14T14:01:39;23.70;;;12.77;;
15082;SDS011;7640;53.116;6.878;2023-12-14T14:04:10;22.40;;;12.53;;
15082;SDS011;7640;53.116;6.878;2023-12-14T14:06:39;26.37;;;13.57;;
15082;SDS011;7640;53.116;6.878;2023-12-14T14:09:12;24.70;;;13.53;;
15082;SDS011;7640;53.116;6.878;2023-12-14T14:11:42;24.93;;;12.90;;
15082;SDS011;7640;53.116;6.878;2023-12-14T14:14:14;29.30;;;13.63;;
15082;SDS011;7640;53.116;6.878;2023-12-14T14:16:43;23.10;;;13.03;;
15082;SDS011;7640;53.116;6.878;2023-12-14T14:19:12;21.67;;;12.13;;
15082;SDS011;7640;53.116;6.878;2023-12-14T14:21:41;23.00;;;12.20;;
15082;SDS011;7640;53.116;6.878;2023-12-14T14:24:10;22.20;;;12.40;;
15082;SDS011;7640;53.116;6.878;2023-12-14T14:26:39;24.20;;;12.53;;
15082;SDS011;7640;53.116;6.878;2023-12-14T14:29:09;29.77;;;12.37;;
15082;SDS011;7640;53.116;6.878;2023-12-14T14:31:38;23.23;;;12.27;;
15082;SDS011;7640;53.116;6.878;2023-12-14T14:34:07;24.17;;;12.20;;
15082;SDS011;7640;53.116;6.878;2023-12-14T14:36:36;23.43;;;13.13;;
15082;SDS011;7640;53.116;6.878;2023-12-14T14:39:05;25.97;;;12.47;;
15082;SDS011;7640;53.116;6.878;2023-12-14T14:41:34;32.60;;;13.60;;
15082;SDS011;7640;53.116;6.878;2023-12-14T14:44:03;23.47;;;11.83;;
15082;SDS011;7640;53.116;6.878;2023-12-14T14:46:35;22.77;;;12.13;;
15082;SDS011;7640;53.116;6.878;2023-12-14T14:49:04;22.03;;;12.60;;
15082;SDS011;7640;53.116;6.878;2023-12-14T14:51:33;22.30;;;11.93;;
15082;SDS011;7640;53.116;6.878;2023-12-14T14:54:02;24.67;;;12.87;;
15082;SDS011;7640;53.116;6.878;2023-12-14T14:56:30;25.70;;;13.77;;